sensor_id;sensor_type;location;lat;lon;timestamp;pressure;altitude;pressure_sealevel;temperature;humidity
46714;BME280;32445;51.376;10.874;2023-02-04T00:00:18;100235.59;;;6.49;61.33
46714;BME280;32445;51.376;10.874;2023-02-04T00:03:19;100251.91;;;6.48;61.39
46714;BME280;32445;51.376;10.874;2023-02-04T00:06:28;100263.09;;;6.43;61.13
46714;BME280;32445;51.376;10.874;2023-02-04T00:09:48;100269.97;;;6.40;61.81
46714;BME280;32445;51.376;10.874;2023-02-04T00:12:49;100286.28;;;6.44;61.85
46714;BME280;32445;51.376;10.874;2023-02-04T00:15:49;100292.28;;;6.40;61.80
46714;BME280;32445;51.376;10.874;2023-02-04T00:18:49;100311.22;;;6.42;62.52
46714;BME280;32445;51.376;10.874;2023-02-04T00:21:50;100309.50;;;6.44;62.04
46714;BME280;32445;51.376;10.874;2023-02-04T00:24:50;100306.06;;;6.44;62.53
46714;BME280;32445;51.376;10.874;2023-02-04T00:28:15;100306.91;;;6.39;62.62
46714;BME280;32445;51.376;10.874;2023-02-04T00:31:32;100306.06;;;6.40;62.59
46714;BME280;32445;51.376;10.874;2023-02-04T00:34:32;100312.91;;;6.38;62.82
46714;BME280;32445;51.376;10.874;2023-02-04T00:37:49;100312.91;;;6.31;63.05
46714;BME280;32445;51.376;10.874;2023-02-04T00:40:49;100312.00;;;6.27;63.01
46714;BME280;32445;51.376;10.874;2023-02-04T00:43:50;100317.16;;;6.24;63.37
46714;BME280;32445;51.376;10.874;2023-02-04T00:46:50;100326.59;;;6.20;63.24
46714;BME280;32445;51.376;10.874;2023-02-04T00:49:50;100330.88;;;6.20;63.32
46714;BME280;32445;51.376;10.874;2023-02-04T00:52:53;100345.50;;;6.19;62.84
46714;BME280;32445;51.376;10.874;2023-02-04T00:55:54;100346.34;;;6.17;62.61
46714;BME280;32445;51.376;10.874;2023-02-04T00:58:59;100354.06;;;6.12;62.49
46714;BME280;32445;51.376;10.874;2023-02-04T01:02:11;100356.63;;;6.14;61.96
46714;BME280;32445;51.376;10.874;2023-02-04T01:05:24;100356.63;;;6.09;61.60
46714;BME280;32445;51.376;10.874;2023-02-04T01:08:24;100366.06;;;6.09;61.32
46714;BME280;32445;51.376;10.874;2023-02-04T01:11:24;100375.53;;;6.11;60.89
46714;BME280;32445;51.376;10.874;2023-02-04T01:14:31;100379.81;;;6.08;60.58
46714;BME280;32445;51.376;10.874;2023-02-04T01:17:31;100389.22;;;6.05;60.45
46714;BME280;32445;51.376;10.874;2023-02-04T01:20:31;100387.47;;;6.00;59.89
46714;BME280;32445;51.376;10.874;2023-02-04T01:23:58;100399.44;;;5.95;58.94
46714;BME280;32445;51.376;10.874;2023-02-04T01:27:36;100400.28;;;5.89;58.90
46714;BME280;32445;51.376;10.874;2023-02-04T01:30:37;100412.28;;;5.90;58.85
46714;BME280;32445;51.376;10.874;2023-02-04T01:33:37;100418.31;;;5.89;58.80
46714;BME280;32445;51.376;10.874;2023-02-04T01:36:38;100425.16;;;5.90;58.69
46714;BME280;32445;51.376;10.874;2023-02-04T01:39:38;100446.69;;;5.94;58.86
46714;BME280;32445;51.376;10.874;2023-02-04T01:43:02;100462.16;;;5.95;58.52
46714;BME280;32445;51.376;10.874;2023-02-04T01:46:02;100481.94;;;5.96;58.96
46714;BME280;32445;51.376;10.874;2023-02-04T01:49:05;100505.97;;;5.97;59.14
46714;BME280;32445;51.376;10.874;2023-02-04T01:52:05;100523.22;;;5.99;59.34
46714;BME280;32445;51.376;10.874;2023-02-04T01:55:20;100536.97;;;6.03;59.33
46714;BME280;32445;51.376;10.874;2023-02-04T01:58:23;100540.50;;;6.10;59.24
46714;BME280;32445;51.376;10.874;2023-02-04T02:01:37;100553.41;;;6.13;59.21
46714;BME280;32445;51.376;10.874;2023-02-04T02:04:37;100556.91;;;6.19;59.12
46714;BME280;32445;51.376;10.874;2023-02-04T02:07:38;100567.22;;;6.19;58.85
46714;BME280;32445;51.376;10.874;2023-02-04T02:10:41;100577.53;;;6.21;58.81
46714;BME280;32445;51.376;10.874;2023-02-04T02:13:48;100595.59;;;6.21;58.62
46714;BME280;32445;51.376;10.874;2023-02-04T02:16:51;100600.75;;;6.21;58.59
46714;BME280;32445;51.376;10.874;2023-02-04T02:19:51;100615.41;;;6.25;58.40
46714;BME280;32445;51.376;10.874;2023-02-04T02:26:11;100638.69;;;6.36;58.25
46714;BME280;32445;51.376;10.874;2023-02-04T02:29:12;100632.69;;;6.37;57.80
46714;BME280;32445;51.376;10.874;2023-02-04T02:32:13;100651.66;;;6.40;57.59
46714;BME280;32445;51.376;10.874;2023-02-04T02:35:14;100642.22;;;6.44;57.43
46714;BME280;32445;51.376;10.874;2023-02-04T02:38:17;100649.09;;;6.44;57.29
46714;BME280;32445;51.376;10.874;2023-02-04T02:41:17;100667.97;;;6.41;56.98
46714;BME280;32445;51.376;10.874;2023-02-04T02:44:18;100662.84;;;6.43;57.15
46714;BME280;32445;51.376;10.874;2023-02-04T02:47:20;100665.44;;;6.44;56.95
46714;BME280;32445;51.376;10.874;2023-02-04T02:50:23;100662.81;;;6.41;56.89
46714;BME280;32445;51.376;10.874;2023-02-04T02:53:25;100673.97;;;6.40;57.08
46714;BME280;32445;51.376;10.874;2023-02-04T02:56:25;100689.44;;;6.38;56.83
46714;BME280;32445;51.376;10.874;2023-02-04T02:59:26;100686.00;;;6.35;56.95
46714;BME280;32445;51.376;10.874;2023-02-04T03:02:27;100700.59;;;6.36;56.99
46714;BME280;32445;51.376;10.874;2023-02-04T03:05:28;100715.19;;;6.34;57.12
46714;BME280;32445;51.376;10.874;2023-02-04T03:08:54;100713.44;;;6.31;56.55
46714;BME280;32445;51.376;10.874;2023-02-04T03:12:05;100715.94;;;6.23;56.81
46714;BME280;32445;51.376;10.874;2023-02-04T03:15:05;100723.53;;;6.13;56.65
46714;BME280;32445;51.376;10.874;2023-02-04T03:18:06;100728.47;;;5.96;56.76
46714;BME280;32445;51.376;10.874;2023-02-04T03:24:48;100741.00;;;5.68;56.38
46714;BME280;32445;51.376;10.874;2023-02-04T03:27:50;100737.50;;;5.64;56.40
46714;BME280;32445;51.376;10.874;2023-02-04T03:30:53;100754.72;;;5.67;56.10
46714;BME280;32445;51.376;10.874;2023-02-04T03:33:56;100752.94;;;5.64;56.20
46714;BME280;32445;51.376;10.874;2023-02-04T03:36:56;100754.69;;;5.64;56.32
46714;BME280;32445;51.376;10.874;2023-02-04T03:39:56;100768.41;;;5.64;56.39
46714;BME280;32445;51.376;10.874;2023-02-04T03:42:57;100775.25;;;5.62;56.21
46714;BME280;32445;51.376;10.874;2023-02-04T03:45:57;100797.50;;;5.57;55.74
46714;BME280;32445;51.376;10.874;2023-02-04T03:49:14;100802.47;;;5.45;55.99
46714;BME280;32445;51.376;10.874;2023-02-04T03:52:14;100811.91;;;5.44;55.39
46714;BME280;32445;51.376;10.874;2023-02-04T03:55:14;100817.94;;;5.45;55.62
46714;BME280;32445;51.376;10.874;2023-02-04T03:58:15;100814.44;;;5.43;55.92
46714;BME280;32445;51.376;10.874;2023-02-04T04:01:15;100822.97;;;5.40;55.63
46714;BME280;32445;51.376;10.874;2023-02-04T04:04:16;100823.88;;;5.41;55.19
46714;BME280;32445;51.376;10.874;2023-02-04T04:07:16;100834.09;;;5.34;55.56
46714;BME280;32445;51.376;10.874;2023-02-04T04:10:23;100840.69;;;5.20;55.48
46714;BME280;32445;51.376;10.874;2023-02-04T04:13:28;100852.66;;;5.18;55.38
46714;BME280;32445;51.376;10.874;2023-02-04T04:16:28;100857.81;;;5.18;55.25
46714;BME280;32445;51.376;10.874;2023-02-04T04:19:29;100878.50;;;5.24;55.27
46714;BME280;32445;51.376;10.874;2023-02-04T04:22:31;100887.19;;;5.29;55.51
46714;BME280;32445;51.376;10.874;2023-02-04T04:25:32;100891.53;;;5.32;55.00
46714;BME280;32445;51.376;10.874;2023-02-04T04:28:33;100914.66;;;5.29;54.73
46714;BME280;32445;51.376;10.874;2023-02-04T04:31:33;100910.34;;;5.28;55.28
46714;BME280;32445;51.376;10.874;2023-02-04T04:34:34;100913.72;;;5.25;55.14
46714;BME280;32445;51.376;10.874;2023-02-04T04:37:34;100928.28;;;5.23;55.48
46714;BME280;32445;51.376;10.874;2023-02-04T04:40:35;100929.09;;;5.20;55.08
46714;BME280;32445;51.376;10.874;2023-02-04T04:43:35;100930.78;;;5.20;55.53
46714;BME280;32445;51.376;10.874;2023-02-04T04:46:36;100941.94;;;5.19;55.34
46714;BME280;32445;51.376;10.874;2023-02-04T04:49:36;100935.88;;;5.17;55.59
46714;BME280;32445;51.376;10.874;2023-02-04T04:52:36;100941.03;;;5.17;55.52
46714;BME280;32445;51.376;10.874;2023-02-04T04:55:37;100941.88;;;5.16;55.35
46714;BME280;32445;51.376;10.874;2023-02-04T04:59:04;100950.34;;;5.10;55.83
46714;BME280;32445;51.376;10.874;2023-02-04T05:02:05;100956.34;;;5.11;55.41
46714;BME280;32445;51.376;10.874;2023-02-04T05:05:05;100956.31;;;5.09;55.51
46714;BME280;32445;51.376;10.874;2023-02-04T05:08:06;100968.28;;;5.07;55.46
46714;BME280;32445;51.376;10.874;2023-02-04T05:11:12;100964.75;;;5.02;55.35
46714;BME280;32445;51.376;10.874;2023-02-04T05:14:12;100957.03;;;5.00;55.46
46714;BME280;32445;51.376;10.874;2023-02-04T05:17:12;100962.09;;;4.97;55.63
46714;BME280;32445;51.376;10.874;2023-02-04T05:20:13;100960.31;;;4.93;55.91
46714;BME280;32445;51.376;10.874;2023-02-04T05:23:13;100979.09;;;4.89;55.32
46714;BME280;32445;51.376;10.874;2023-02-04T05:26:13;100989.28;;;4.84;55.65
46714;BME280;32445;51.376;10.874;2023-02-04T05:29:14;100997.81;;;4.82;55.34
46714;BME280;32445;51.376;10.874;2023-02-04T05:32:14;100995.16;;;4.79;55.72
46714;BME280;32445;51.376;10.874;2023-02-04T05:35:15;101001.09;;;4.75;55.36
46714;BME280;32445;51.376;10.874;2023-02-04T05:38:15;101005.31;;;4.73;55.75
46714;BME280;32445;51.376;10.874;2023-02-04T05:41:15;101016.47;;;4.72;56.16
46714;BME280;32445;51.376;10.874;2023-02-04T05:44:16;101024.03;;;4.67;55.85
46714;BME280;32445;51.376;10.874;2023-02-04T05:47:16;101035.19;;;4.66;55.67
46714;BME280;32445;51.376;10.874;2023-02-04T05:50:19;101035.09;;;4.61;55.90
46714;BME280;32445;51.376;10.874;2023-02-04T05:53:19;101036.72;;;4.58;55.89
46714;BME280;32445;51.376;10.874;2023-02-04T05:56:19;101032.38;;;4.55;56.02
46714;BME280;32445;51.376;10.874;2023-02-04T05:59:20;101040.00;;;4.52;55.57
46714;BME280;32445;51.376;10.874;2023-02-04T06:02:20;101039.09;;;4.48;56.04
46714;BME280;32445;51.376;10.874;2023-02-04T06:05:20;101039.00;;;4.45;55.88
46714;BME280;32445;51.376;10.874;2023-02-04T06:08:22;101042.28;;;4.40;55.79
46714;BME280;32445;51.376;10.874;2023-02-04T06:11:22;101048.22;;;4.36;55.58
46714;BME280;32445;51.376;10.874;2023-02-04T06:14:22;101048.94;;;4.30;56.07
46714;BME280;32445;51.376;10.874;2023-02-04T06:17:23;101053.94;;;4.25;55.58
46714;BME280;32445;51.376;10.874;2023-02-04T06:20:23;101064.94;;;4.20;55.67
46714;BME280;32445;51.376;10.874;2023-02-04T06:23:24;101070.78;;;4.14;55.70
46714;BME280;32445;51.376;10.874;2023-02-04T06:26:24;101077.53;;;4.09;55.61
46714;BME280;32445;51.376;10.874;2023-02-04T06:29:25;101081.69;;;4.05;55.84
46714;BME280;32445;51.376;10.874;2023-02-04T06:32:25;101091.06;;;4.02;55.94
46714;BME280;32445;51.376;10.874;2023-02-04T06:35:25;101092.63;;;3.96;56.02
46714;BME280;32445;51.376;10.874;2023-02-04T06:38:26;101100.22;;;3.92;55.87
46714;BME280;32445;51.376;10.874;2023-02-04T06:41:26;101105.22;;;3.87;55.83
46714;BME280;32445;51.376;10.874;2023-02-04T06:44:26;101104.25;;;3.84;55.76
46714;BME280;32445;51.376;10.874;2023-02-04T06:47:26;101105.91;;;3.80;55.42
46714;BME280;32445;51.376;10.874;2023-02-04T06:50:27;101116.91;;;3.76;55.39
46714;BME280;32445;51.376;10.874;2023-02-04T06:53:27;101118.47;;;3.71;55.58
46714;BME280;32445;51.376;10.874;2023-02-04T06:56:27;101125.19;;;3.66;55.97
46714;BME280;32445;51.376;10.874;2023-02-04T06:59:49;101137.88;;;3.61;56.07
46714;BME280;32445;51.376;10.874;2023-02-04T07:02:49;101141.25;;;3.58;55.83
46714;BME280;32445;51.376;10.874;2023-02-04T07:05:50;101147.97;;;3.55;55.65
46714;BME280;32445;51.376;10.874;2023-02-04T07:08:52;101153.03;;;3.52;56.15
46714;BME280;32445;51.376;10.874;2023-02-04T07:11:52;101148.66;;;3.49;56.22
46714;BME280;32445;51.376;10.874;2023-02-04T07:14:53;101158.94;;;3.49;56.23
46714;BME280;32445;51.376;10.874;2023-02-04T07:17:53;101161.50;;;3.49;56.22
46714;BME280;32445;51.376;10.874;2023-02-04T07:20:53;101168.34;;;3.49;56.38
46714;BME280;32445;51.376;10.874;2023-02-04T07:23:54;101173.50;;;3.49;56.30
46714;BME280;32445;51.376;10.874;2023-02-04T07:26:54;101170.97;;;3.50;56.53
46714;BME280;32445;51.376;10.874;2023-02-04T07:29:55;101187.28;;;3.52;56.93
46714;BME280;32445;51.376;10.874;2023-02-04T07:32:55;101184.69;;;3.52;56.86
46714;BME280;32445;51.376;10.874;2023-02-04T07:35:56;101187.31;;;3.54;56.79
46714;BME280;32445;51.376;10.874;2023-02-04T07:38:56;101194.25;;;3.56;56.89
46714;BME280;32445;51.376;10.874;2023-02-04T07:41:56;101189.16;;;3.58;57.04
46714;BME280;32445;51.376;10.874;2023-02-04T07:44:57;101196.91;;;3.59;57.23
46714;BME280;32445;51.376;10.874;2023-02-04T07:47:57;101211.50;;;3.60;57.71
46714;BME280;32445;51.376;10.874;2023-02-04T07:50:57;101214.06;;;3.60;57.34
46714;BME280;32445;51.376;10.874;2023-02-04T07:53:57;101207.13;;;3.58;57.13
46714;BME280;32445;51.376;10.874;2023-02-04T07:56:58;101212.31;;;3.59;57.78
46714;BME280;32445;51.376;10.874;2023-02-04T07:59:58;101205.41;;;3.57;57.28
46714;BME280;32445;51.376;10.874;2023-02-04T08:02:59;101212.13;;;3.53;57.92
46714;BME280;32445;51.376;10.874;2023-02-04T08:05:59;101215.47;;;3.51;58.08
46714;BME280;32445;51.376;10.874;2023-02-04T08:08:59;101215.34;;;3.46;57.89
46714;BME280;32445;51.376;10.874;2023-02-04T08:12:00;101224.50;;;3.38;58.73
46714;BME280;32445;51.376;10.874;2023-02-04T08:15:00;101231.19;;;3.33;59.28
46714;BME280;32445;51.376;10.874;2023-02-04T08:18:01;101243.22;;;3.35;59.23
46714;BME280;32445;51.376;10.874;2023-02-04T08:21:01;101245.03;;;3.38;59.58
46714;BME280;32445;51.376;10.874;2023-02-04T08:24:04;101260.47;;;3.39;59.08
46714;BME280;32445;51.376;10.874;2023-02-04T08:27:04;101257.91;;;3.39;59.41
46714;BME280;32445;51.376;10.874;2023-02-04T08:30:05;101264.75;;;3.39;59.17
46714;BME280;32445;51.376;10.874;2023-02-04T08:33:05;101261.41;;;3.41;58.67
46714;BME280;32445;51.376;10.874;2023-02-04T08:36:06;101267.50;;;3.45;58.71
46714;BME280;32445;51.376;10.874;2023-02-04T08:39:07;101271.00;;;3.47;58.06
46714;BME280;32445;51.376;10.874;2023-02-04T08:42:07;101276.19;;;3.49;57.98
46714;BME280;32445;51.376;10.874;2023-02-04T08:45:08;101292.59;;;3.54;58.10
46714;BME280;32445;51.376;10.874;2023-02-04T08:48:08;101292.75;;;3.58;58.13
46714;BME280;32445;51.376;10.874;2023-02-04T08:51:08;101310.00;;;3.62;57.91
46714;BME280;32445;51.376;10.874;2023-02-04T08:54:09;101316.97;;;3.67;57.80
46714;BME280;32445;51.376;10.874;2023-02-04T08:57:09;101311.13;;;3.72;57.61
46714;BME280;32445;51.376;10.874;2023-02-04T09:00:10;101319.06;;;3.78;58.02
46714;BME280;32445;51.376;10.874;2023-02-04T09:03:11;101323.50;;;3.84;58.23
46714;BME280;32445;51.376;10.874;2023-02-04T09:06:11;101331.41;;;3.90;57.52
46714;BME280;32445;51.376;10.874;2023-02-04T09:09:13;101338.38;;;3.94;58.12
46714;BME280;32445;51.376;10.874;2023-02-04T09:12:13;101329.97;;;4.00;58.19
46714;BME280;32445;51.376;10.874;2023-02-04T09:15:14;101338.63;;;4.04;57.52
46714;BME280;32445;51.376;10.874;2023-02-04T09:18:14;101337.09;;;4.09;57.10
46714;BME280;32445;51.376;10.874;2023-02-04T09:21:16;101339.88;;;4.16;57.04
46714;BME280;32445;51.376;10.874;2023-02-04T09:24:17;101348.56;;;4.20;57.25
46714;BME280;32445;51.376;10.874;2023-02-04T09:27:17;101349.56;;;4.25;56.83
46714;BME280;32445;51.376;10.874;2023-02-04T09:30:18;101346.28;;;4.31;57.01
46714;BME280;32445;51.376;10.874;2023-02-04T09:33:19;101345.56;;;4.35;56.76
46714;BME280;32445;51.376;10.874;2023-02-04T09:36:19;101340.66;;;4.43;56.96
46714;BME280;32445;51.376;10.874;2023-02-04T09:39:19;101343.34;;;4.47;56.66
46714;BME280;32445;51.376;10.874;2023-02-04T09:42:22;101355.44;;;4.50;56.64
46714;BME280;32445;51.376;10.874;2023-02-04T09:45:27;101348.69;;;4.55;56.12
46714;BME280;32445;51.376;10.874;2023-02-04T09:48:27;101352.19;;;4.57;56.31
46714;BME280;32445;51.376;10.874;2023-02-04T09:51:29;101363.44;;;4.61;56.37
46714;BME280;32445;51.376;10.874;2023-02-04T09:54:32;101360.91;;;4.62;56.06
46714;BME280;32445;51.376;10.874;2023-02-04T09:57:33;101375.47;;;4.62;55.78
46714;BME280;32445;51.376;10.874;2023-02-04T10:00:33;101373.78;;;4.64;55.92
46714;BME280;32445;51.376;10.874;2023-02-04T10:03:33;101383.38;;;4.70;55.40
46714;BME280;32445;51.376;10.874;2023-02-04T10:06:34;101375.78;;;4.74;54.97
46714;BME280;32445;51.376;10.874;2023-02-04T10:09:36;101381.13;;;4.80;54.70
46714;BME280;32445;51.376;10.874;2023-02-04T10:12:38;101382.06;;;4.84;55.10
46714;BME280;32445;51.376;10.874;2023-02-04T10:15:38;101382.97;;;4.84;54.69
46714;BME280;32445;51.376;10.874;2023-02-04T10:18:39;101378.69;;;4.85;54.77
46714;BME280;32445;51.376;10.874;2023-02-04T10:21:46;101380.44;;;4.86;54.46
46714;BME280;32445;51.376;10.874;2023-02-04T10:24:46;101373.69;;;4.91;54.13
46714;BME280;32445;51.376;10.874;2023-02-04T10:30:51;101384.25;;;5.00;54.82
46714;BME280;32445;51.376;10.874;2023-02-04T10:34:14;101377.38;;;5.01;54.32
46714;BME280;32445;51.376;10.874;2023-02-04T10:37:20;101380.94;;;5.05;54.27
46714;BME280;32445;51.376;10.874;2023-02-04T10:40:32;101378.38;;;5.06;54.54
46714;BME280;32445;51.376;10.874;2023-02-04T10:43:32;101382.84;;;5.12;54.84
46714;BME280;32445;51.376;10.874;2023-02-04T10:46:34;101376.81;;;5.13;54.41
46714;BME280;32445;51.376;10.874;2023-02-04T10:49:35;101384.63;;;5.14;54.64
46714;BME280;32445;51.376;10.874;2023-02-04T10:52:42;101372.59;;;5.15;54.41
46714;BME280;32445;51.376;10.874;2023-02-04T10:55:47;101381.25;;;5.18;54.67
46714;BME280;32445;51.376;10.874;2023-02-04T10:58:48;101387.34;;;5.20;54.15
46714;BME280;32445;51.376;10.874;2023-02-04T11:01:48;101385.72;;;5.24;54.32
46714;BME280;32445;51.376;10.874;2023-02-04T11:04:49;101386.75;;;5.31;54.20
46714;BME280;32445;51.376;10.874;2023-02-04T11:07:50;101389.47;;;5.37;54.07
46714;BME280;32445;51.376;10.874;2023-02-04T11:10:54;101391.38;;;5.44;53.66
46714;BME280;32445;51.376;10.874;2023-02-04T11:13:59;101390.66;;;5.50;53.85
46714;BME280;32445;51.376;10.874;2023-02-04T11:17:00;101396.91;;;5.60;53.95
46714;BME280;32445;51.376;10.874;2023-02-04T11:20:15;101399.56;;;5.63;53.74
46714;BME280;32445;51.376;10.874;2023-02-04T11:23:29;101404.84;;;5.67;53.64
46714;BME280;32445;51.376;10.874;2023-02-04T11:26:36;101412.75;;;5.75;53.43
46714;BME280;32445;51.376;10.874;2023-02-04T11:29:37;101413.75;;;5.80;53.77
46714;BME280;32445;51.376;10.874;2023-02-04T11:32:38;101419.84;;;5.85;53.24
46714;BME280;32445;51.376;10.874;2023-02-04T11:35:38;101414.84;;;5.92;53.20
46714;BME280;32445;51.376;10.874;2023-02-04T11:38:43;101421.88;;;5.97;52.88
46714;BME280;32445;51.376;10.874;2023-02-04T11:41:44;101416.03;;;6.04;52.69
46714;BME280;32445;51.376;10.874;2023-02-04T11:44:50;101427.38;;;6.11;52.49
46714;BME280;32445;51.376;10.874;2023-02-04T11:47:51;101432.69;;;6.19;52.67
46714;BME280;32445;51.376;10.874;2023-02-04T11:50:56;101434.53;;;6.24;52.69
46714;BME280;32445;51.376;10.874;2023-02-04T11:53:57;101439.88;;;6.32;52.36
46714;BME280;32445;51.376;10.874;2023-02-04T11:56:58;101439.91;;;6.34;52.20
46714;BME280;32445;51.376;10.874;2023-02-04T11:59:59;101438.09;;;6.30;51.68
46714;BME280;32445;51.376;10.874;2023-02-04T12:03:03;101444.97;;;6.29;51.40
46714;BME280;32445;51.376;10.874;2023-02-04T12:06:06;101437.31;;;6.32;51.74
46714;BME280;32445;51.376;10.874;2023-02-04T12:12:24;101436.75;;;6.47;51.69
46714;BME280;32445;51.376;10.874;2023-02-04T12:15:33;101439.38;;;6.49;51.41
46714;BME280;32445;51.376;10.874;2023-02-04T12:18:37;101451.56;;;6.56;51.87
46714;BME280;32445;51.376;10.874;2023-02-04T12:21:38;101446.53;;;6.61;51.62
46714;BME280;32445;51.376;10.874;2023-02-04T12:24:39;101451.84;;;6.68;51.25
46714;BME280;32445;51.376;10.874;2023-02-04T12:27:39;101453.59;;;6.69;50.84
46714;BME280;32445;51.376;10.874;2023-02-04T12:30:39;101451.94;;;6.73;50.95
46714;BME280;32445;51.376;10.874;2023-02-04T12:33:40;101449.41;;;6.76;50.79
46714;BME280;32445;51.376;10.874;2023-02-04T12:36:40;101440.88;;;6.80;50.87
46714;BME280;32445;51.376;10.874;2023-02-04T12:39:40;101445.31;;;6.86;51.35
46714;BME280;32445;51.376;10.874;2023-02-04T12:42:41;101446.31;;;6.92;51.36
46714;BME280;32445;51.376;10.874;2023-02-04T12:45:42;101449.81;;;6.96;50.82
46714;BME280;32445;51.376;10.874;2023-02-04T12:48:45;101453.38;;;7.01;51.19
46714;BME280;32445;51.376;10.874;2023-02-04T12:51:45;101456.94;;;7.08;51.11
46714;BME280;32445;51.376;10.874;2023-02-04T12:54:46;101452.69;;;7.12;50.73
46714;BME280;32445;51.376;10.874;2023-02-04T12:57:46;101457.06;;;7.14;50.55
46714;BME280;32445;51.376;10.874;2023-02-04T13:00:46;101460.56;;;7.18;50.62
46714;BME280;32445;51.376;10.874;2023-02-04T13:03:47;101461.47;;;7.20;50.54
46714;BME280;32445;51.376;10.874;2023-02-04T13:06:47;101468.41;;;7.22;50.27
46714;BME280;32445;51.376;10.874;2023-02-04T13:09:47;101464.16;;;7.26;50.23
46714;BME280;32445;51.376;10.874;2023-02-04T13:12:49;101467.63;;;7.26;49.38
46714;BME280;32445;51.376;10.874;2023-02-04T13:15:49;101475.38;;;7.25;49.30
46714;BME280;32445;51.376;10.874;2023-02-04T13:18:50;101470.25;;;7.28;49.76
46714;BME280;32445;51.376;10.874;2023-02-04T13:21:50;101470.31;;;7.31;49.70
46714;BME280;32445;51.376;10.874;2023-02-04T13:24:51;101470.31;;;7.31;48.97
46714;BME280;32445;51.376;10.874;2023-02-04T13:27:51;101472.84;;;7.30;49.10
46714;BME280;32445;51.376;10.874;2023-02-04T13:30:51;101472.81;;;7.26;49.40
46714;BME280;32445;51.376;10.874;2023-02-04T13:33:52;101470.19;;;7.25;49.90
46714;BME280;32445;51.376;10.874;2023-02-04T13:36:52;101476.19;;;7.24;49.46
46714;BME280;32445;51.376;10.874;2023-02-04T13:39:53;101482.19;;;7.23;49.25
46714;BME280;32445;51.376;10.874;2023-02-04T13:42:53;101477.03;;;7.23;49.51
46714;BME280;32445;51.376;10.874;2023-02-04T13:45:53;101476.06;;;7.18;49.11
46714;BME280;32445;51.376;10.874;2023-02-04T13:48:54;101475.91;;;7.10;49.97
46714;BME280;32445;51.376;10.874;2023-02-04T13:51:54;101476.66;;;7.04;49.21
46714;BME280;32445;51.376;10.874;2023-02-04T13:54:55;101473.22;;;7.04;48.93
46714;BME280;32445;51.376;10.874;2023-02-04T13:57:55;101473.06;;;6.98;49.62
46714;BME280;32445;51.376;10.874;2023-02-04T14:00:56;101475.53;;;6.91;49.29
46714;BME280;32445;51.376;10.874;2023-02-04T14:03:56;101469.50;;;6.89;49.59
46714;BME280;32445;51.376;10.874;2023-02-04T14:06:57;101473.88;;;6.93;49.30
46714;BME280;32445;51.376;10.874;2023-02-04T14:09:57;101473.88;;;6.93;48.99
46714;BME280;32445;51.376;10.874;2023-02-04T14:12:57;101478.91;;;6.87;49.23
46714;BME280;32445;51.376;10.874;2023-02-04T14:15:58;101481.59;;;6.92;48.73
46714;BME280;32445;51.376;10.874;2023-02-04T14:18:59;101483.38;;;6.96;49.24
46714;BME280;32445;51.376;10.874;2023-02-04T14:21:59;101486.03;;;6.99;49.17
46714;BME280;32445;51.376;10.874;2023-02-04T14:24:59;101482.59;;;7.00;49.48
46714;BME280;32445;51.376;10.874;2023-02-04T14:28:00;101478.31;;;6.99;49.45
46714;BME280;32445;51.376;10.874;2023-02-04T14:31:00;101480.06;;;7.03;49.62
46714;BME280;32445;51.376;10.874;2023-02-04T14:34:01;101473.19;;;7.02;49.32
46714;BME280;32445;51.376;10.874;2023-02-04T14:37:01;101479.94;;;6.96;49.33
46714;BME280;32445;51.376;10.874;2023-02-04T14:40:02;101484.22;;;6.93;49.83
46714;BME280;32445;51.376;10.874;2023-02-04T14:43:02;101478.91;;;6.87;49.46
46714;BME280;32445;51.376;10.874;2023-02-04T14:46:03;101484.09;;;6.89;49.67
46714;BME280;32445;51.376;10.874;2023-02-04T14:49:04;101475.50;;;6.90;49.07
46714;BME280;32445;51.376;10.874;2023-02-04T14:52:04;101479.84;;;6.91;49.19
46714;BME280;32445;51.376;10.874;2023-02-04T14:55:05;101485.97;;;6.96;49.63
46714;BME280;32445;51.376;10.874;2023-02-04T14:58:05;101487.72;;;6.99;49.58
46714;BME280;32445;51.376;10.874;2023-02-04T15:01:06;101494.69;;;7.01;49.52
46714;BME280;32445;51.376;10.874;2023-02-04T15:04:07;101493.81;;;7.01;49.45
46714;BME280;32445;51.376;10.874;2023-02-04T15:07:07;101488.69;;;7.02;49.45
46714;BME280;32445;51.376;10.874;2023-02-04T15:10:09;101492.00;;;6.97;49.66
46714;BME280;32445;51.376;10.874;2023-02-04T15:13:10;101497.16;;;6.95;49.68
46714;BME280;32445;51.376;10.874;2023-02-04T15:16:10;101501.44;;;6.96;50.10
46714;BME280;32445;51.376;10.874;2023-02-04T15:19:11;101501.53;;;6.99;50.05
46714;BME280;32445;51.376;10.874;2023-02-04T15:22:11;101500.69;;;7.00;50.10
46714;BME280;32445;51.376;10.874;2023-02-04T15:25:12;101501.53;;;6.99;50.04
46714;BME280;32445;51.376;10.874;2023-02-04T15:28:12;101502.41;;;7.00;50.06
46714;BME280;32445;51.376;10.874;2023-02-04T15:31:13;101500.69;;;7.00;50.40
46714;BME280;32445;51.376;10.874;2023-02-04T15:34:13;101505.00;;;7.01;50.74
46714;BME280;32445;51.376;10.874;2023-02-04T15:37:14;101508.41;;;7.00;51.22
46714;BME280;32445;51.376;10.874;2023-02-04T15:40:14;101509.28;;;6.99;51.04
46714;BME280;32445;51.376;10.874;2023-02-04T15:43:14;101500.63;;;6.97;51.61
46714;BME280;32445;51.376;10.874;2023-02-04T15:46:15;101493.66;;;6.93;51.83
46714;BME280;32445;51.376;10.874;2023-02-04T15:49:15;101501.34;;;6.91;52.03
46714;BME280;32445;51.376;10.874;2023-02-04T15:52:15;101503.00;;;6.86;51.75
46714;BME280;32445;51.376;10.874;2023-02-04T15:55:16;101507.19;;;6.83;51.83
46714;BME280;32445;51.376;10.874;2023-02-04T15:58:16;101508.81;;;6.78;51.94
46714;BME280;32445;51.376;10.874;2023-02-04T16:01:17;101506.94;;;6.70;51.81
46714;BME280;32445;51.376;10.874;2023-02-04T16:04:18;101511.13;;;6.65;52.18